Time;durP1;ratioP1;P1;durP2;ratioP2;P2;SDS_P1;SDS_P2;PMS_P1;PMS_P2;Temp;Humidity;BMP_temperature;BMP_pressure;BME280_temperature;BME280_humidity;BME280_pressure;Samples;Min_cycle;Max_cycle;Signal;HPM_P1;HPM_P2
2023/03/22 00:01:29;;;;;;;10.10;5.50;;;;;;;8.08;100.00;100820.47;6272297;22;20094;-86
2023/03/22 00:03:55;;;;;;;11.35;5.55;;;;;;;8.04;100.00;100818.88;6272599;22;20010;-86
2023/03/22 00:06:21;;;;;;;10.55;5.28;;;;;;;7.98;100.00;100803.19;6272173;22;20012;-86
2023/03/22 00:08:51;;;;;;;12.48;5.30;;;;;;;7.96;100.00;100818.31;6271549;22;20004;-85
2023/03/22 00:11:18;;;;;;;9.52;5.35;;;;;;;7.91;100.00;100807.91;6271996;22;20017;-85
2023/03/22 00:13:45;;;;;;;10.25;5.55;;;;;;;7.83;100.00;100804.69;6273021;22;20006;-85
2023/03/22 00:16:11;;;;;;;14.80;6.25;;;;;;;7.80;100.00;100804.81;6247407;22;20019;-86
2023/03/22 00:18:37;;;;;;;9.57;5.70;;;;;;;7.80;100.00;100807.47;6271997;22;20569;-87
2023/03/22 00:21:02;;;;;;;10.20;5.85;;;;;;;7.70;100.00;100790.22;6271774;22;20004;-86
2023/03/22 00:23:28;;;;;;;13.45;6.70;;;;;;;7.74;100.00;100792.69;6271682;22;20016;-85
2023/03/22 00:25:54;;;;;;;12.00;7.32;;;;;;;7.73;100.00;100790.06;6271150;22;20011;-86
2023/03/22 00:28:19;;;;;;;13.05;7.22;;;;;;;7.70;100.00;100787.56;6271054;22;20012;-85
2023/03/22 00:30:56;;;;;;;14.45;7.22;;;;;;;7.72;100.00;100793.66;6271861;22;20012;-84
2023/03/22 00:33:22;;;;;;;12.70;7.28;;;;;;;7.71;100.00;100776.91;6270841;22;20020;-87
2023/03/22 00:35:52;;;;;;;8.98;6.88;;;;;;;7.73;100.00;100782.13;6271581;22;20007;-87
2023/03/22 00:38:18;;;;;;;11.60;7.57;;;;;;;7.74;100.00;100781.22;6272403;22;20003;-87
2023/03/22 00:40:44;;;;;;;11.77;8.13;;;;;;;7.71;100.00;100774.25;6272624;22;20008;-86
2023/03/22 00:43:09;;;;;;;10.15;8.18;;;;;;;7.66;100.00;100770.06;6271747;22;20444;-86
2023/03/22 00:45:39;;;;;;;11.48;8.07;;;;;;;7.65;100.00;100760.38;6246084;22;20003;-87
2023/03/22 00:48:07;;;;;;;13.43;8.05;;;;;;;7.65;100.00;100760.38;6271899;22;20007;-85
2023/03/22 00:50:32;;;;;;;12.60;8.20;;;;;;;7.61;100.00;100758.81;6271914;22;20007;-87
2023/03/22 00:52:58;;;;;;;11.73;8.20;;;;;;;7.60;100.00;100757.91;6272848;22;20010;-87
2023/03/22 00:55:23;;;;;;;12.60;8.63;;;;;;;7.59;100.00;100753.53;6244812;22;20331;-87
2023/03/22 00:57:48;;;;;;;11.95;8.80;;;;;;;7.57;100.00;100747.47;6272878;22;20017;-86
2023/03/22 01:00:14;;;;;;;15.20;8.95;;;;;;;7.61;100.00;100742.91;6274648;22;20421;-86
2023/03/22 01:02:41;;;;;;;15.13;10.68;;;;;;;7.62;100.00;100747.28;6273130;22;20527;-86
2023/03/22 01:05:08;;;;;;;12.90;8.63;;;;;;;7.60;100.00;100739.38;6273317;22;20094;-86
2023/03/22 01:07:37;;;;;;;12.65;9.57;;;;;;;7.64;100.00;100729.50;6273879;22;20004;-86
2023/03/22 01:10:03;;;;;;;14.50;9.75;;;;;;;7.63;100.00;100727.78;6273695;22;20000;-86
2023/03/22 01:12:29;;;;;;;14.60;10.90;;;;;;;7.63;100.00;100733.09;6275023;22;19999;-85
2023/03/22 01:14:54;;;;;;;16.02;9.82;;;;;;;7.65;100.00;100718.88;6275628;22;20403;-87
2023/03/22 01:17:23;;;;;;;16.52;10.93;;;;;;;7.66;100.00;100720.59;6284755;22;20007;-85
2023/03/22 01:19:48;;;;;;;13.88;11.35;;;;;;;7.69;100.00;100722.22;6298122;22;19991;-87
2023/03/22 01:22:13;;;;;;;14.45;11.15;;;;;;;7.69;100.00;100712.53;6298946;22;19995;-86
2023/03/22 01:24:39;;;;;;;17.92;12.15;;;;;;;7.67;100.00;100719.66;6293869;22;20012;-87
2023/03/22 01:27:04;;;;;;;17.77;12.13;;;;;;;7.61;100.00;100700.53;6282147;22;20007;-87
2023/03/22 01:29:30;;;;;;;18.20;12.77;;;;;;;7.66;100.00;100707.34;6294863;22;20004;-86
2023/03/22 01:31:56;;;;;;;15.98;12.35;;;;;;;7.63;100.00;100702.16;6286207;22;20015;-83
2023/03/22 01:34:25;;;;;;;16.50;13.40;;;;;;;7.62;100.00;100686.34;6279881;22;20304;-86
2023/03/22 01:36:51;;;;;;;15.65;13.20;;;;;;;7.54;100.00;100670.75;6281788;22;20007;-87
2023/03/22 01:39:16;;;;;;;15.05;13.13;;;;;;;7.57;100.00;100675.09;6252702;22;20011;-86
2023/03/22 01:41:41;;;;;;;17.88;14.52;;;;;;;7.53;100.00;100660.25;6281363;22;20026;-85
2023/03/22 01:44:17;;;;;;;16.42;13.23;;;;;;;7.52;100.00;100661.16;6285754;22;19999;-87
2023/03/22 01:46:44;;;;;;;21.52;15.43;;;;;;;7.57;100.00;100656.53;6287503;22;20063;-84
2023/03/22 01:49:15;;;;;;;17.55;15.15;;;;;;;7.60;100.00;100664.34;6283456;22;20003;-85
2023/03/22 01:51:42;;;;;;;21.73;15.90;;;;;;;7.58;100.00;100655.63;6255344;22;20155;-84
2023/03/22 01:54:11;;;;;;;17.85;15.60;;;;;;;7.57;100.00;100651.25;6281050;22;20095;-84
2023/03/22 01:56:39;;;;;;;19.73;16.27;;;;;;;7.55;100.00;100645.13;6281155;22;20425;-86
2023/03/22 01:59:07;;;;;;;20.55;17.33;;;;;;;7.62;100.00;100642.19;6280487;22;20003;-83
2023/03/22 02:01:33;;;;;;;21.08;16.65;;;;;;;7.63;100.00;100637.75;6279803;22;20011;-85
2023/03/22 02:04:14;;;;;;;19.90;15.77;;;;;;;7.71;100.00;100641.78;6252010;22;20003;-85
2023/03/22 02:06:39;;;;;;;17.85;15.18;;;;;;;7.72;100.00;100632.03;6273596;22;20023;-86
2023/03/22 02:09:08;;;;;;;18.67;16.77;;;;;;;7.74;100.00;100632.84;6274071;22;20003;-86
2023/03/22 02:11:37;;;;;;;17.42;15.63;;;;;;;7.79;100.00;100628.22;6274531;22;20000;-85
2023/03/22 02:14:09;;;;;;;17.23;14.50;;;;;;;7.78;100.00;100621.19;6275229;22;20006;-84
2023/03/22 02:16:42;;;;;;;18.73;15.20;;;;;;;7.78;100.00;100615.03;6274320;22;19999;-86
2023/03/22 02:19:29;;;;;;;16.08;14.25;;;;;;;7.86;100.00;100619.09;6274893;22;20007;-85
2023/03/22 02:22:22;;;;;;;15.48;13.82;;;;;;;7.91;100.00;100616.22;6276577;22;20007;-85
2023/03/22 02:25:29;;;;;;;16.98;13.27;;;;;;;7.96;100.00;100612.44;6277689;22;20030;-86
2023/03/22 02:28:12;;;;;;;14.48;12.95;;;;;;;7.95;100.00;100616.03;6275097;22;20414;-85
2023/03/22 02:30:59;;;;;;;14.60;12.40;;;;;;;7.96;100.00;100611.59;6275295;22;20368;-84
2023/03/22 02:33:52;;;;;;;15.85;13.07;;;;;;;7.94;100.00;100611.66;6276911;22;19999;-84
2023/03/22 02:36:48;;;;;;;15.32;11.40;;;;;;;7.93;100.00;100604.63;6248647;22;20015;-85
2023/03/22 02:39:38;;;;;;;18.27;12.93;;;;;;;7.94;100.00;100598.41;6270227;22;20087;-85
2023/03/22 02:42:30;;;;;;;14.10;11.48;;;;;;;7.95;100.00;100599.28;6274043;22;20010;-86
2023/03/22 02:45:04;;;;;;;14.75;11.88;;;;;;;7.97;100.00;100603.56;6273098;22;20007;-85
2023/03/22 02:47:50;;;;;;;16.13;11.32;;;;;;;8.05;100.00;100608.53;6273051;22;20003;-86
2023/03/22 02:50:18;;;;;;;13.90;11.35;;;;;;;8.09;100.00;100599.50;6272715;22;20007;-85
2023/03/22 02:52:51;;;;;;;14.63;10.75;;;;;;;8.14;100.00;100602.81;6273345;22;19999;-83
2023/03/22 02:55:29;;;;;;;13.90;10.82;;;;;;;8.14;100.00;100601.94;6270696;22;20012;-86
2023/03/22 02:58:17;;;;;;;11.95;10.70;;;;;;;8.15;100.00;100591.31;6271458;22;20020;-86
2023/03/22 03:00:46;;;;;;;13.88;11.07;;;;;;;8.15;100.00;100596.59;6255036;22;20011;-86
2023/03/22 03:03:17;;;;;;;11.43;10.15;;;;;;;8.15;100.00;100588.66;6244586;22;20010;-83
2023/03/22 03:05:54;;;;;;;12.13;9.85;;;;;;;8.16;100.00;100585.06;6271501;22;20030;-85
2023/03/22 03:08:22;;;;;;;12.20;9.07;;;;;;;8.15;100.00;100580.69;6244298;22;20003;-86
2023/03/22 03:10:50;;;;;;;14.15;9.40;;;;;;;8.13;100.00;100577.25;6272107;22;20061;-87
2023/03/22 03:13:16;;;;;;;9.63;8.32;;;;;;;8.13;100.00;100573.72;6272739;22;20003;-86
2023/03/22 03:15:44;;;;;;;9.80;8.13;;;;;;;8.14;100.00;100567.50;6271757;22;20003;-85
2023/03/22 03:18:20;;;;;;;11.73;9.00;;;;;;;8.16;100.00;100568.28;6271075;22;20007;-85
2023/03/22 03:21:01;;;;;;;9.27;8.20;;;;;;;8.11;100.00;100571.16;6245434;22;20087;-86
2023/03/22 03:23:48;;;;;;;11.85;8.50;;;;;;;8.15;100.00;100572.75;6244793;22;20012;-86
2023/03/22 03:26:42;;;;;;;11.00;9.02;;;;;;;8.15;100.00;100571.84;6270954;22;20007;-86
2023/03/22 03:29:21;;;;;;;10.05;8.80;;;;;;;8.09;100.00;100561.53;6272218;22;20011;-86
2023/03/22 03:32:01;;;;;;;12.30;9.00;;;;;;;8.09;100.00;100549.16;6271830;22;20010;-85
2023/03/22 03:34:33;;;;;;;10.82;8.27;;;;;;;8.09;100.00;100558.88;6270907;22;20329;-87
2023/03/22 03:37:07;;;;;;;11.43;7.85;;;;;;;8.13;100.00;100568.44;6271088;22;20004;-86
2023/03/22 03:39:37;;;;;;;12.55;8.20;;;;;;;8.12;100.00;100556.09;6273690;22;20306;-86
2023/03/22 03:42:05;;;;;;;9.82;7.55;;;;;;;8.14;100.00;100557.75;6272972;22;20010;-85
2023/03/22 03:44:32;;;;;;;10.65;7.70;;;;;;;8.14;100.00;100565.69;6272316;22;20060;-87
2023/03/22 03:46:58;;;;;;;12.35;8.20;;;;;;;8.08;100.00;100549.22;6284145;22;20255;-85
2023/03/22 03:49:25;;;;;;;10.98;7.78;;;;;;;8.17;100.00;100556.75;6296307;22;19996;-87
2023/03/22 03:51:53;;;;;;;11.82;7.35;;;;;;;8.19;100.00;100565.47;6297743;22;20012;-86
2023/03/22 03:54:19;;;;;;;10.35;7.03;;;;;;;8.18;100.00;100572.59;6292723;22;20004;-85
2023/03/22 03:56:46;;;;;;;10.57;6.80;;;;;;;8.15;100.00;100566.56;6273968;22;20433;-86
2023/03/22 03:59:14;;;;;;;9.55;6.15;;;;;;;8.20;100.00;100568.09;6274334;22;20007;-84
2023/03/22 04:01:48;;;;;;;10.10;6.45;;;;;;;8.18;100.00;100571.72;6273084;22;20026;-87
2023/03/22 04:04:15;;;;;;;7.93;5.90;;;;;;;8.19;100.00;100570.78;6247746;22;20034;-85
2023/03/22 04:06:41;;;;;;;10.18;6.03;;;;;;;8.21;100.00;100561.84;6277333;22;20136;-86
2023/03/22 04:09:06;;;;;;;7.57;5.80;;;;;;;8.16;100.00;100547.94;6276203;22;20018;-85
2023/03/22 04:11:32;;;;;;;8.70;6.22;;;;;;;8.20;100.00;100565.44;6274710;22;20011;-84
2023/03/22 04:13:57;;;;;;;7.93;5.97;;;;;;;8.15;100.00;100570.09;6274988;22;19999;-85
2023/03/22 04:16:23;;;;;;;8.52;6.03;;;;;;;8.05;100.00;100557.31;6272400;22;20077;-84
2023/03/22 04:18:49;;;;;;;8.73;5.60;;;;;;;8.04;100.00;100564.41;6273885;22;20003;-86
2023/03/22 04:21:15;;;;;;;8.63;5.40;;;;;;;7.84;100.00;100540.56;6276182;22;20304;-84
2023/03/22 04:23:40;;;;;;;9.05;6.03;;;;;;;8.02;100.00;100562.75;6256063;22;20018;-84
2023/03/22 04:26:06;;;;;;;8.90;5.82;;;;;;;8.03;100.00;100562.69;6281294;22;20009;-84
2023/03/22 04:28:32;;;;;;;9.80;5.47;;;;;;;8.02;100.00;100560.09;6282391;22;20007;-84
2023/03/22 04:30:58;;;;;;;9.68;5.22;;;;;;;7.94;100.00;100558.66;6272351;22;20014;-86
2023/03/22 04:33:23;;;;;;;7.80;5.22;;;;;;;7.95;100.00;100543.63;6244629;22;20003;-85
2023/03/22 04:35:49;;;;;;;8.38;5.57;;;;;;;7.96;100.00;100547.97;6269267;22;20082;-87
2023/03/22 04:38:15;;;;;;;8.10;5.03;;;;;;;8.01;100.00;100537.16;6242223;22;20007;-85
2023/03/22 04:40:45;;;;;;;8.48;5.78;;;;;;;8.06;100.00;100551.06;6270649;22;20349;-85
2023/03/22 04:43:10;;;;;;;9.15;5.55;;;;;;;8.05;100.00;100547.56;6270749;22;20003;-86
2023/03/22 04:45:36;;;;;;;7.70;5.68;;;;;;;8.05;100.00;100544.06;6270471;22;20003;-85
2023/03/22 04:48:01;;;;;;;10.90;6.05;;;;;;;8.02;100.00;100546.84;6268818;22;20000;-86
2023/03/22 04:50:27;;;;;;;10.07;5.40;;;;;;;8.02;100.00;100541.53;6268331;22;20743;-85
2023/03/22 04:52:53;;;;;;;8.88;5.20;;;;;;;7.98;100.00;100536.41;6268998;22;19996;-86
2023/03/22 04:55:18;;;;;;;8.18;5.07;;;;;;;7.99;100.00;100540.75;6268789;22;20101;-86
2023/03/22 04:57:43;;;;;;;10.38;5.15;;;;;;;8.03;100.00;100536.19;6267539;22;20000;-86
2023/03/22 05:00:09;;;;;;;7.70;4.97;;;;;;;8.05;100.00;100534.31;6269600;22;20302;-86
2023/03/22 05:02:37;;;;;;;8.80;5.40;;;;;;;8.05;100.00;100541.41;6267563;22;20494;-86
2023/03/22 05:05:04;;;;;;;9.38;5.22;;;;;;;8.10;100.00;100547.34;6269158;22;20013;-86
2023/03/22 05:07:29;;;;;;;8.73;4.82;;;;;;;8.12;100.00;100540.22;6267206;22;20090;-86
2023/03/22 05:09:54;;;;;;;7.65;4.80;;;;;;;8.12;100.00;100541.06;6242862;22;20535;-86
2023/03/22 05:12:20;;;;;;;11.02;5.05;;;;;;;8.11;100.00;100544.66;6270477;22;20354;-86
2023/03/22 05:14:45;;;;;;;6.65;4.20;;;;;;;8.10;100.00;100528.78;6269342;22;20129;-86
2023/03/22 05:17:10;;;;;;;10.57;5.35;;;;;;;8.15;100.00;100537.38;6268036;22;20004;-85
2023/03/22 05:19:36;;;;;;;10.77;4.63;;;;;;;8.15;100.00;100518.84;6270455;22;20031;-85
2023/03/22 05:22:01;;;;;;;8.75;4.40;;;;;;;8.22;100.00;100530.88;6269780;22;20026;-85
2023/03/22 05:24:29;;;;;;;6.93;4.47;;;;;;;8.23;100.00;100536.13;6270544;22;20014;-84
2023/03/22 05:26:54;;;;;;;7.97;4.85;;;;;;;8.23;100.00;100524.66;6270258;22;20527;-86
2023/03/22 05:29:23;;;;;;;6.53;3.90;;;;;;;8.27;100.00;100528.03;6270863;22;20531;-86
2023/03/22 05:31:48;;;;;;;7.05;4.43;;;;;;;8.25;100.00;100528.09;6272265;22;20016;-85
2023/03/22 05:34:14;;;;;;;10.25;4.90;;;;;;;8.26;100.00;100526.31;6270919;22;20004;-86
2023/03/22 05:36:39;;;;;;;7.30;4.15;;;;;;;8.27;100.00;100520.91;6271256;22;20035;-86
2023/03/22 05:39:04;;;;;;;9.57;4.90;;;;;;;8.25;100.00;100536.06;6272712;22;20419;-85
2023/03/22 05:41:32;;;;;;;9.55;4.60;;;;;;;8.25;100.00;100520.16;6272513;22;20007;-85
2023/03/22 05:43:59;;;;;;;7.35;4.40;;;;;;;8.24;100.00;100529.91;6245226;22;20079;-85
2023/03/22 05:46:24;;;;;;;9.60;4.57;;;;;;;8.25;100.00;100530.75;6272180;22;20374;-86
2023/03/22 05:48:50;;;;;;;7.93;4.18;;;;;;;8.24;100.00;100529.03;6274864;22;20011;-86
2023/03/22 05:51:18;;;;;;;9.35;3.83;;;;;;;8.29;100.00;100531.47;6273676;22;20004;-86
2023/03/22 05:53:46;;;;;;;8.05;4.43;;;;;;;8.26;100.00;100526.31;6272787;22;20376;-87
2023/03/22 05:56:12;;;;;;;8.20;4.35;;;;;;;8.27;100.00;100522.72;6272596;22;20083;-86
2023/03/22 05:58:38;;;;;;;6.25;4.07;;;;;;;8.29;100.00;100532.34;6270471;22;20018;-86
2023/03/22 06:01:10;;;;;;;8.80;4.43;;;;;;;8.29;100.00;100542.09;6268614;22;20015;-86
2023/03/22 06:03:36;;;;;;;10.25;4.30;;;;;;;8.21;100.00;100539.78;6268368;22;20004;-86
2023/03/22 06:06:05;;;;;;;10.13;4.47;;;;;;;8.26;100.00;100526.31;6243157;22;20602;-86
2023/03/22 06:08:30;;;;;;;9.18;4.47;;;;;;;8.24;100.00;100540.50;6245187;22;20004;-86
2023/03/22 06:10:56;;;;;;;8.70;4.00;;;;;;;8.28;100.00;100535.94;6277478;22;20046;-85
2023/03/22 06:13:21;;;;;;;11.88;4.78;;;;;;;8.31;100.00;100522.50;6297481;22;20028;-87
2023/03/22 06:15:46;;;;;;;8.70;4.40;;;;;;;8.29;100.00;100516.44;6297981;22;20008;-87
2023/03/22 06:18:12;;;;;;;9.85;4.78;;;;;;;8.41;100.00;100530.94;6294299;22;20000;-86
2023/03/22 06:20:38;;;;;;;7.15;4.22;;;;;;;8.39;100.00;100523.03;6276435;22;20029;-88
2023/03/22 06:23:04;;;;;;;11.35;5.07;;;;;;;8.40;100.00;100529.19;6276911;22;20042;-86
2023/03/22 06:25:29;;;;;;;9.57;4.90;;;;;;;8.42;100.00;100525.56;6274172;22;20556;-86
2023/03/22 06:27:55;;;;;;;8.50;4.63;;;;;;;8.44;100.00;100521.06;6272745;22;20375;-87
2023/03/22 06:30:20;;;;;;;8.23;4.38;;;;;;;8.54;100.00;100520.63;6273985;22;20190;-87
2023/03/22 06:32:46;;;;;;;10.55;5.00;;;;;;;8.55;100.00;100527.63;6275995;22;20023;-87
2023/03/22 06:35:11;;;;;;;9.13;4.53;;;;;;;8.37;100.00;100493.09;6223431;22;20031;-86
2023/03/22 06:37:37;;;;;;;8.45;4.45;;;;;;;8.44;100.00;100491.88;6245006;22;20079;-85
2023/03/22 06:40:03;;;;;;;11.13;5.10;;;;;;;8.57;100.00;100504.53;6245380;23;20008;-86
2023/03/22 06:42:29;;;;;;;8.70;4.60;;;;;;;8.68;100.00;100502.22;6243715;22;20007;-86
2023/03/22 06:44:56;;;;;;;9.15;4.32;;;;;;;8.59;100.00;100486.75;6242535;22;20012;-86
2023/03/22 06:47:21;;;;;;;10.43;5.47;;;;;;;8.63;100.00;100491.84;6240540;22;20054;-87
2023/03/22 06:49:47;;;;;;;9.52;4.80;;;;;;;8.75;100.00;100506.31;6240691;22;20413;-86
2023/03/22 06:52:12;;;;;;;8.52;4.55;;;;;;;8.78;100.00;100516.78;6238957;23;20008;-86
2023/03/22 06:54:38;;;;;;;11.25;5.32;;;;;;;8.71;100.00;100508.25;6240341;22;20055;-86
2023/03/22 06:57:03;;;;;;;8.70;5.20;;;;;;;8.73;100.00;100494.91;6239920;23;20003;-86
2023/03/22 06:59:32;;;;;;;8.57;5.30;;;;;;;8.86;100.00;100509.31;6237043;23;20012;-86
2023/03/22 07:01:57;;;;;;;10.65;5.28;;;;;;;9.06;100.00;100518.06;6238042;22;20004;-87
2023/03/22 07:04:23;;;;;;;11.38;5.95;;;;;;;9.08;100.00;100516.22;6236850;23;20095;-85
2023/03/22 07:06:49;;;;;;;10.95;6.88;;;;;;;9.21;100.00;100506.69;6236302;22;20015;-85
2023/03/22 07:09:15;;;;;;;11.07;5.85;;;;;;;9.51;100.00;100529.97;6239175;22;20090;-86
2023/03/22 07:11:40;;;;;;;8.82;5.07;;;;;;;9.38;99.87;100488.09;6237359;22;20095;-84
2023/03/22 07:14:06;;;;;;;9.00;5.18;;;;;;;9.47;98.87;100503.53;6237964;23;20031;-86
2023/03/22 07:16:31;;;;;;;8.77;4.63;;;;;;;9.45;98.28;100496.63;6237435;22;20004;-86
2023/03/22 07:18:56;;;;;;;10.02;5.00;;;;;;;9.44;98.50;100508.16;6239891;22;20058;-85
2023/03/22 07:21:22;;;;;;;7.25;5.07;;;;;;;9.31;98.17;100491.13;6239067;23;20000;-85
2023/03/22 07:23:47;;;;;;;7.22;5.03;;;;;;;9.45;98.32;100518.72;6238170;23;20008;-87
2023/03/22 07:26:13;;;;;;;11.95;4.82;;;;;;;9.38;98.21;100504.03;6237813;22;20003;-87
2023/03/22 07:28:40;;;;;;;13.07;5.10;;;;;;;9.58;98.03;100534.88;6238916;22;20011;-86
2023/03/22 07:31:11;;;;;;;11.98;4.43;;;;;;;9.45;97.26;100502.78;6237823;22;20015;-87
2023/03/22 07:33:42;;;;;;;8.00;4.60;;;;;;;9.77;97.48;100547.22;6238501;22;20079;-87
2023/03/22 07:36:09;;;;;;;12.70;5.00;;;;;;;9.63;96.79;100516.03;6237533;22;20018;-86
2023/03/22 07:38:35;;;;;;;9.23;4.75;;;;;;;9.67;96.11;100520.25;6238723;22;20023;-85
2023/03/22 07:41:00;;;;;;;12.52;5.35;;;;;;;9.63;95.92;100513.38;6237226;23;20039;-86
2023/03/22 07:43:26;;;;;;;9.88;4.85;;;;;;;9.67;95.55;100520.25;6238129;23;20081;-85
2023/03/22 07:45:51;;;;;;;8.93;5.50;;;;;;;9.61;95.91;100505.47;6237150;22;20507;-86
2023/03/22 07:48:18;;;;;;;12.15;5.32;;;;;;;9.75;95.44;100512.75;6240930;22;20007;-86
2023/03/22 07:50:44;;;;;;;10.10;4.57;;;;;;;9.84;94.49;100500.78;6239641;22;20003;-87
2023/03/22 07:53:10;;;;;;;5.70;4.00;;;;;;;10.07;93.32;100532.28;6237587;23;20710;-87
2023/03/22 07:55:39;;;;;;;9.90;4.35;;;;;;;10.26;92.60;100544.63;6238029;22;20011;-84
2023/03/22 07:58:13;;;;;;;8.38;3.90;;;;;;;10.13;91.87;100509.84;6252584;22;20171;-88
2023/03/22 08:00:40;;;;;;;9.40;4.25;;;;;;;10.32;90.69;100496.41;6267132;22;20044;-88
2023/03/22 08:03:09;;;;;;;9.77;3.78;;;;;;;10.42;89.14;100492.31;6267506;22;19996;-88
2023/03/22 08:05:34;;;;;;;10.52;3.50;;;;;;;10.64;87.93;100531.88;6259626;22;20000;-88
2023/03/22 08:08:00;;;;;;;7.75;3.72;;;;;;;10.65;87.74;100536.25;6253450;23;20487;-88
2023/03/22 08:10:28;;;;;;;8.80;3.40;;;;;;;10.51;88.19;100512.22;6255453;22;19996;-89
2023/03/22 08:12:53;;;;;;;11.05;4.30;;;;;;;10.41;87.82;100495.94;6248956;23;20004;-87
2023/03/22 08:15:18;;;;;;;11.68;4.05;;;;;;;10.57;87.91;100541.13;6242048;23;20144;-88
2023/03/22 08:17:44;;;;;;;8.43;3.53;;;;;;;10.42;87.86;100516.25;6243473;23;20004;-88
2023/03/22 08:20:11;;;;;;;9.30;3.85;;;;;;;10.46;87.39;100539.94;6243930;23;20014;-88
2023/03/22 08:22:37;;;;;;;10.25;3.85;;;;;;;10.32;86.92;100509.72;6238637;23;20342;-88
2023/03/22 08:25:03;;;;;;;8.40;3.78;;;;;;;10.44;87.11;100523.19;6239963;23;20024;-88
2023/03/22 08:27:30;;;;;;;10.93;3.53;;;;;;;10.45;86.51;100530.25;6241374;22;20074;-87
2023/03/22 08:29:57;;;;;;;8.00;3.90;;;;;;;10.60;86.90;100539.16;6244130;23;20007;-88
2023/03/22 08:32:23;;;;;;;8.00;3.35;;;;;;;10.81;86.04;100550.41;6242159;22;20000;-87
2023/03/22 08:34:49;;;;;;;7.38;2.97;;;;;;;10.91;84.12;100522.34;6241784;22;20071;-86
2023/03/22 08:37:15;;;;;;;10.65;3.75;;;;;;;11.50;82.05;100530.44;6241073;22;20054;-87
2023/03/22 08:39:42;;;;;;;10.40;3.65;;;;;;;12.39;79.46;100543.69;6241942;23;20315;-88
2023/03/22 08:42:10;;;;;;;8.82;3.28;;;;;;;12.68;76.75;100502.63;6241864;22;20022;-92
2023/03/22 08:44:50;;;;;;;9.50;3.30;;;;;;;12.83;75.68;100511.47;6241643;22;20119;-91
2023/03/22 08:47:16;;;;;;;6.50;2.72;;;;;;;12.84;74.85;100515.84;6257093;22;20429;-86
2023/03/22 08:49:42;;;;;;;8.20;2.85;;;;;;;12.89;74.53;100495.03;6242998;22;20057;-88
2023/03/22 08:52:07;;;;;;;8.98;3.30;;;;;;;12.95;72.93;100502.63;6254955;22;20008;-88
2023/03/22 08:54:33;;;;;;;8.88;3.13;;;;;;;12.67;72.49;100492.06;6285940;22;19996;-88
2023/03/22 08:56:58;;;;;;;7.55;2.78;;;;;;;12.50;74.39;100502.94;6266154;22;20061;-89
2023/03/22 08:59:24;;;;;;;9.05;3.28;;;;;;;12.50;73.82;100519.84;6263897;22;20008;-88
2023/03/22 09:01:49;;;;;;;7.18;2.60;;;;;;;12.39;74.28;100519.66;6255235;22;20004;-87
2023/03/22 09:04:15;;;;;;;8.98;3.20;;;;;;;12.15;73.90;100490.03;6252464;22;20004;-87
2023/03/22 09:06:44;;;;;;;7.35;2.53;;;;;;;12.17;74.68;100494.34;6259969;23;20000;-89
2023/03/22 09:09:09;;;;;;;5.45;2.47;;;;;;;12.16;75.35;100497.09;6243698;23;20256;-88
2023/03/22 09:11:36;;;;;;;9.80;2.90;;;;;;;12.19;74.64;100488.91;6245010;22;20059;-88
2023/03/22 09:14:02;;;;;;;9.57;3.25;;;;;;;12.09;75.07;100491.28;6242875;23;20000;-88
2023/03/22 09:16:31;;;;;;;8.98;2.80;;;;;;;12.25;75.42;100515.22;6242786;22;20000;-88
2023/03/22 09:18:56;;;;;;;7.07;3.10;;;;;;;12.05;73.28;100463.09;6242413;22;20008;-87
2023/03/22 09:21:21;;;;;;;9.20;3.13;;;;;;;12.11;74.86;100477.84;6241947;22;20030;-88
2023/03/22 09:23:47;;;;;;;9.13;3.08;;;;;;;12.57;73.70;100477.56;6242129;22;20039;-87
2023/03/22 09:26:13;;;;;;;8.45;2.40;;;;;;;12.68;72.20;100473.25;6238260;23;20062;-87
2023/03/22 09:28:38;;;;;;;7.45;3.55;;;;;;;12.81;72.12;100493.81;6240329;22;20032;-87
2023/03/22 09:31:07;;;;;;;8.52;3.08;;;;;;;12.71;72.17;100465.06;6240801;22;20330;-86
2023/03/22 09:33:34;;;;;;;7.63;2.67;;;;;;;12.93;71.33;100479.66;6240119;22;20135;-85
2023/03/22 09:36:00;;;;;;;7.57;3.00;;;;;;;12.98;71.16;100485.53;6239576;22;20543;-88
2023/03/22 09:38:26;;;;;;;9.63;3.30;;;;;;;13.06;70.75;100498.38;6240198;22;20011;-87
2023/03/22 09:41:01;;;;;;;8.45;2.60;;;;;;;12.89;71.07;100508.38;6239803;22;20004;-88
2023/03/22 09:43:34;;;;;;;7.50;2.70;;;;;;;12.46;71.39;100462.28;6240063;22;20008;-87
2023/03/22 09:46:02;;;;;;;7.75;2.55;;;;;;;12.50;72.29;100495.81;6239878;22;20089;-88
2023/03/22 09:48:31;;;;;;;8.50;2.53;;;;;;;12.30;72.53;100466.88;6240444;22;20110;-87
2023/03/22 09:50:59;;;;;;;8.05;2.70;;;;;;;12.41;72.54;100465.22;6239798;22;20004;-87
2023/03/22 09:53:27;;;;;;;9.07;3.08;;;;;;;12.41;72.09;100475.88;6240557;22;20075;-87
2023/03/22 09:56:08;;;;;;;9.65;3.08;;;;;;;12.44;73.01;100512.22;6239534;22;20004;-87
2023/03/22 09:58:55;;;;;;;8.23;2.80;;;;;;;12.27;73.56;100475.06;6238660;22;20008;-86
2023/03/22 10:02:08;;;;;;;9.38;2.70;;;;;;;12.24;73.21;100508.13;6263593;22;20089;-87
2023/03/22 10:04:50;;;;;;;6.95;2.38;;;;;;;11.96;74.18;100485.03;6230336;23;20384;-86
2023/03/22 10:07:18;;;;;;;11.20;2.88;;;;;;;12.00;74.53;100493.66;6239157;22;20008;-87
2023/03/22 10:10:03;;;;;;;7.97;2.70;;;;;;;11.91;74.99;100517.31;6237451;22;20015;-86
2023/03/22 10:12:32;;;;;;;6.97;2.42;;;;;;;11.64;75.33;100489.63;6239075;22;20019;-86
2023/03/22 10:15:19;;;;;;;9.10;3.15;;;;;;;11.70;76.40;100494.56;6239616;22;20034;-87
2023/03/22 10:17:50;;;;;;;7.80;2.50;;;;;;;11.57;75.41;100488.28;6239381;22;20034;-88
2023/03/22 10:20:30;;;;;;;7.78;2.72;;;;;;;11.56;76.59;100490.09;6242945;22;20010;-87
2023/03/22 10:23:00;;;;;;;10.80;3.35;;;;;;;11.40;77.15;100476.81;6255454;22;20003;-88
2023/03/22 10:25:44;;;;;;;7.90;2.60;;;;;;;11.51;78.16;100467.34;6259588;23;20028;-86
2023/03/22 10:28:46;;;;;;;7.35;2.60;;;;;;;11.54;76.96;100484.00;6258593;22;20038;-86
2023/03/22 10:31:16;;;;;;;6.25;3.00;;;;;;;11.47;77.11;100472.84;6252810;23;20008;-86
2023/03/22 10:34:04;;;;;;;8.75;2.90;;;;;;;11.55;77.39;100492.84;6254803;22;20000;-88
2023/03/22 10:36:33;;;;;;;11.98;3.10;;;;;;;11.32;79.45;100484.41;6260654;22;20016;-89
2023/03/22 10:39:27;;;;;;;11.23;3.58;;;;;;;11.03;82.27;100486.13;6258353;22;20000;-88
2023/03/22 10:41:59;;;;;;;12.25;3.13;;;;;;;10.64;87.07;100494.63;6262031;22;20011;-88
2023/03/22 10:44:27;;;;;;;8.60;3.08;;;;;;;10.42;90.94;100494.97;6258048;23;20020;-89
2023/03/22 10:46:56;;;;;;;7.45;3.30;;;;;;;9.89;95.78;100465.00;6262021;22;20012;-88
2023/03/22 10:49:28;;;;;;;7.03;3.30;;;;;;;9.75;96.31;100475.53;6249605;22;20000;-87
2023/03/22 10:52:00;;;;;;;7.25;3.35;;;;;;;9.63;98.33;100481.50;6271010;22;20004;-88
2023/03/22 10:54:26;;;;;;;10.68;3.80;;;;;;;9.67;100.00;100501.66;6246805;22;20087;-88
2023/03/22 10:56:52;;;;;;;6.53;2.78;;;;;;;9.57;100.00;100479.16;6248009;22;20000;-89
2023/03/22 10:59:48;;;;;;;8.00;3.10;;;;;;;9.82;100.00;100523.91;6245772;22;20465;-89
2023/03/22 11:02:25;;;;;;;8.10;3.40;;;;;;;9.54;100.00;100477.53;6242772;23;20099;-88
2023/03/22 11:04:56;;;;;;;8.88;3.28;;;;;;;9.71;100.00;100500.56;6243111;22;20102;-85
2023/03/22 11:07:37;;;;;;;8.93;3.05;;;;;;;9.86;98.85;100521.00;6243427;22;20000;-87
2023/03/22 11:10:11;;;;;;;9.13;3.47;;;;;;;9.90;100.00;100527.00;6244215;22;20012;-87
2023/03/22 11:13:02;;;;;;;;;;;;;;;9.85;99.36;100529.91;6245030;22;20008;-89
2023/03/22 11:15:30;;;;;;;9.13;3.70;;;;;;;9.64;100.00;100478.75;6236707;23;19955;-88
2023/03/22 11:18:10;;;;;;;8.13;3.20;;;;;;;9.80;100.00;100493.91;6248522;23;20008;-88
2023/03/22 11:20:39;;;;;;;8.55;2.97;;;;;;;9.78;100.00;100493.09;6269731;22;20020;-86
2023/03/22 11:23:05;;;;;;;7.13;2.97;;;;;;;9.69;100.00;100491.78;6270141;22;20070;-87
2023/03/22 11:25:39;;;;;;;7.60;3.00;;;;;;;9.81;100.00;100499.13;6269205;22;20003;-86
2023/03/22 11:28:04;;;;;;;9.77;3.63;;;;;;;10.11;100.00;100511.72;6265771;22;19992;-88
2023/03/22 11:30:31;;;;;;;8.02;3.05;;;;;;;10.08;100.00;100488.81;6265976;23;20006;-86
2023/03/22 11:33:18;;;;;;;5.50;2.63;;;;;;;10.27;99.27;100520.59;6263314;22;20372;-87